Time;durP1;ratioP1;P1;durP2;ratioP2;P2;SDS_P1;SDS_P2;PMS_P1;PMS_P2;Temp;Humidity;BMP_temperature;BMP_pressure;BME280_temperature;BME280_humidity;BME280_pressure;Samples;Min_cycle;Max_cycle;Signal;HPM_P1;HPM_P2
2021/08/27 00:00:59;;;;;;;2.00;1.75;;;;;;;23.25;63.71;99707.84;4957966;28;20030;-71
2021/08/27 00:03:24;;;;;;;1.70;1.60;;;;;;;23.40;64.18;99708.09;4957879;28;20034;-73
2021/08/27 00:05:50;;;;;;;2.13;1.80;;;;;;;23.47;63.14;99719.97;4957753;28;20034;-71
2021/08/27 00:08:16;;;;;;;2.17;1.95;;;;;;;23.48;63.36;99715.88;4958493;28;20034;-71
2021/08/27 00:10:41;;;;;;;1.77;1.67;;;;;;;23.41;63.11;99719.00;4942073;28;20178;-73
2021/08/27 00:13:11;;;;;;;3.25;1.90;;;;;;;23.36;63.17;99716.75;4957773;28;20089;-72
2021/08/27 00:15:37;;;;;;;2.78;1.77;;;;;;;23.27;63.49;99702.47;4957694;28;20480;-72
2021/08/27 00:18:03;;;;;;;1.90;1.80;;;;;;;23.27;64.19;99706.09;4957509;28;20047;-72
2021/08/27 00:20:29;;;;;;;4.78;2.17;;;;;;;23.33;64.40;99708.34;4958199;28;20037;-71
2021/08/27 00:22:54;;;;;;;1.80;1.70;;;;;;;23.27;63.41;99699.63;4957855;28;20075;-72
2021/08/27 00:25:20;;;;;;;1.58;1.48;;;;;;;23.23;63.33;99713.19;4957656;28;20039;-73
2021/08/27 00:27:46;;;;;;;1.70;1.60;;;;;;;23.15;63.89;99709.00;4957629;28;20038;-73
2021/08/27 00:30:12;;;;;;;1.70;1.60;;;;;;;22.99;64.61;99707.94;4957545;28;20027;-73
2021/08/27 00:32:37;;;;;;;1.73;1.40;;;;;;;22.91;64.76;99703.78;4957800;28;20031;-74
2021/08/27 00:35:05;;;;;;;1.70;1.40;;;;;;;22.88;64.29;99698.22;4957968;28;20466;-72
2021/08/27 00:37:31;;;;;;;1.67;1.40;;;;;;;22.81;64.90;99693.56;4957762;28;20038;-71
2021/08/27 00:39:57;;;;;;;2.05;1.48;;;;;;;22.81;65.24;99704.91;4957333;28;20018;-72
2021/08/27 00:42:22;;;;;;;1.90;1.70;;;;;;;22.87;64.79;99702.28;4957522;28;20046;-71
2021/08/27 00:44:48;;;;;;;4.07;3.38;;;;;;;23.08;65.58;99687.38;4957583;28;20121;-72
2021/08/27 00:47:14;;;;;;;3.03;2.75;;;;;;;22.80;66.36;99683.47;4957733;28;20065;-72
2021/08/27 00:49:39;;;;;;;3.90;2.22;;;;;;;22.74;65.36;99690.97;4957164;28;20473;-72
2021/08/27 00:52:08;;;;;;;4.20;2.40;;;;;;;22.73;65.82;99690.19;4956766;28;20055;-72
2021/08/27 00:54:33;;;;;;;2.40;2.20;;;;;;;22.65;65.75;99688.06;4957359;28;20037;-72
2021/08/27 00:56:59;;;;;;;2.75;2.05;;;;;;;22.66;66.01;99689.63;4957410;28;20031;-72
2021/08/27 00:59:25;;;;;;;1.70;1.60;;;;;;;22.63;65.67;99685.66;4957120;28;20030;-73
2021/08/27 01:01:51;;;;;;;1.73;1.63;;;;;;;22.62;65.45;99678.41;4957114;28;20038;-73
2021/08/27 01:04:17;;;;;;;2.03;1.50;;;;;;;22.57;65.63;99687.50;4956785;28;20030;-72
2021/08/27 01:06:54;;;;;;;1.60;1.50;;;;;;;22.44;66.09;99681.88;4957046;28;20035;-71
2021/08/27 01:09:23;;;;;;;2.35;1.75;;;;;;;22.55;66.09;99672.22;4957576;28;20031;-72
2021/08/27 01:12:36;;;;;;;2.10;1.95;;;;;;;22.44;66.50;99681.88;4957084;28;20034;-72
2021/08/27 01:15:09;;;;;;;4.90;2.28;;;;;;;22.46;66.25;99682.19;4885490;28;20035;-73
2021/08/27 01:17:36;;;;;;;;;;;;;;;22.40;66.61;99675.50;4957229;28;20065;-70
2021/08/27 01:20:32;;;;;;;3.00;1.98;;;;;;;22.40;66.83;99681.19;4957444;28;20452;-72
2021/08/27 01:23:16;;;;;;;3.22;2.95;;;;;;;22.42;67.17;99675.84;4974896;28;20478;-70
2021/08/27 01:25:49;;;;;;;4.43;2.50;;;;;;;22.40;67.79;99672.69;4957821;28;20396;-71
2021/08/27 01:28:16;;;;;;;2.60;2.40;;;;;;;22.55;67.66;99672.22;4957041;28;20121;-70
2021/08/27 01:30:54;;;;;;;5.90;3.10;;;;;;;22.47;67.73;99672.44;4956901;28;20039;-71
2021/08/27 01:33:23;;;;;;;3.58;2.78;;;;;;;22.50;67.56;99682.06;4957159;28;20493;-71
2021/08/27 01:36:01;;;;;;;3.22;2.80;;;;;;;22.43;67.86;99677.44;4974276;28;20085;-71
2021/08/27 01:38:39;;;;;;;3.17;2.60;;;;;;;22.44;67.35;99676.19;4957101;28;20062;-72
2021/08/27 01:41:11;;;;;;;3.15;2.10;;;;;;;22.52;67.21;99684.44;4956706;28;20066;-72
2021/08/27 01:43:40;;;;;;;2.33;2.13;;;;;;;22.30;67.75;99675.88;4957032;28;20038;-71
2021/08/27 01:46:07;;;;;;;3.80;2.75;;;;;;;22.29;68.00;99674.28;4957307;28;20034;-72
2021/08/27 01:48:37;;;;;;;2.58;2.15;;;;;;;22.29;68.11;99672.25;4956699;28;20023;-72
2021/08/27 01:51:05;;;;;;;2.92;2.65;;;;;;;22.24;68.11;99681.31;4973700;28;20504;-72
2021/08/27 01:53:32;;;;;;;2.92;2.47;;;;;;;22.29;68.88;99680.75;4956957;28;20316;-73
2021/08/27 01:56:00;;;;;;;4.10;2.45;;;;;;;22.24;68.51;99675.66;4956961;28;20499;-71
2021/08/27 01:58:27;;;;;;;3.53;2.78;;;;;;;22.36;69.59;99683.34;4956794;28;20050;-72
2021/08/27 02:00:55;;;;;;;3.47;2.85;;;;;;;22.27;68.46;99673.97;4956436;28;20031;-71
2021/08/27 02:03:22;;;;;;;5.05;3.45;;;;;;;22.30;68.07;99679.50;4960134;28;20109;-72
2021/08/27 02:05:52;;;;;;;4.57;3.58;;;;;;;22.25;68.83;99673.59;4959969;28;20042;-71
2021/08/27 02:08:20;;;;;;;3.60;3.20;;;;;;;22.12;69.75;99674.41;4960168;28;20027;-71
2021/08/27 02:10:47;;;;;;;4.53;3.78;;;;;;;22.24;70.74;99672.81;4960319;28;20026;-72
2021/08/27 02:13:13;;;;;;;4.00;3.70;;;;;;;22.20;69.93;99674.97;4959802;28;20038;-72
2021/08/27 02:15:39;;;;;;;4.57;3.85;;;;;;;22.07;70.08;99654.34;4944024;28;20042;-72
2021/08/27 02:18:05;;;;;;;4.57;4.07;;;;;;;22.22;69.99;99684.63;4959487;28;20146;-73
2021/08/27 02:20:31;;;;;;;5.57;4.40;;;;;;;22.18;70.44;99677.47;4959704;28;20110;-72
2021/08/27 02:23:00;;;;;;;3.78;3.42;;;;;;;22.15;70.25;99675.53;4977084;28;20034;-72
2021/08/27 02:25:29;;;;;;;3.95;3.38;;;;;;;22.27;68.86;99673.97;4960224;28;20027;-73
2021/08/27 02:27:57;;;;;;;5.57;3.42;;;;;;;21.98;69.98;99640.84;4959614;28;20047;-74
2021/08/27 02:30:24;;;;;;;4.05;3.60;;;;;;;22.06;70.25;99661.25;4976962;28;20058;-72
2021/08/27 02:32:50;;;;;;;3.72;3.20;;;;;;;22.06;70.82;99647.88;4959817;28;20498;-73
2021/08/27 02:35:16;;;;;;;7.40;3.90;;;;;;;22.03;70.31;99659.31;4977105;28;20074;-74
2021/08/27 02:37:44;;;;;;;4.07;3.67;;;;;;;22.09;69.99;99666.78;4959991;28;20081;-72
2021/08/27 02:40:10;;;;;;;4.80;3.50;;;;;;;22.07;69.57;99666.47;4959035;28;20038;-73
2021/08/27 02:42:37;;;;;;;4.05;3.75;;;;;;;22.00;70.29;99657.38;4959468;28;20027;-73
2021/08/27 02:45:05;;;;;;;5.47;3.70;;;;;;;21.99;70.57;99659.44;4959258;28;20074;-73
2021/08/27 02:47:31;;;;;;;3.92;3.55;;;;;;;21.91;70.65;99644.72;4959242;28;20022;-73
2021/08/27 02:49:57;;;;;;;44.63;29.80;;;;;;;22.06;70.30;99652.75;4959144;28;20022;-73
2021/08/27 02:52:32;;;;;;;38.85;29.90;;;;;;;21.95;70.27;99650.28;4959594;28;20117;-74
2021/08/27 02:55:15;;;;;;;26.60;23.67;;;;;;;21.87;70.66;99658.19;4959602;28;20023;-73
2021/08/27 02:57:50;;;;;;;10.27;9.18;;;;;;;21.73;70.50;99647.28;4959384;28;20550;-73
2021/08/27 03:00:18;;;;;;;10.55;9.55;;;;;;;21.76;71.24;99652.06;4959035;28;20034;-70
2021/08/27 03:02:46;;;;;;;16.45;14.75;;;;;;;21.82;70.71;99658.75;4958860;28;20129;-72
2021/08/27 03:05:16;;;;;;;13.27;11.88;;;;;;;21.80;70.94;99658.41;4959261;28;20117;-70
2021/08/27 03:07:55;;;;;;;19.73;17.75;;;;;;;21.76;70.93;99657.72;4958924;28;20042;-71
2021/08/27 03:10:32;;;;;;;13.50;11.93;;;;;;;21.73;72.15;99657.84;4976081;28;20037;-70
2021/08/27 03:13:03;;;;;;;12.20;8.27;;;;;;;21.72;70.95;99657.03;4958613;28;20031;-70
2021/08/27 03:15:32;;;;;;;6.13;5.47;;;;;;;21.69;71.25;99652.31;4959090;28;20470;-72
2021/08/27 03:18:14;;;;;;;4.95;3.90;;;;;;;21.66;71.47;99661.69;4958772;28;20517;-72
2021/08/27 03:20:52;;;;;;;3.70;3.40;;;;;;;21.66;71.51;99665.31;4959062;28;20178;-71
2021/08/27 03:23:20;;;;;;;5.18;4.53;;;;;;;21.74;71.00;99667.94;4958622;28;20037;-72
2021/08/27 03:25:47;;;;;;;7.55;4.53;;;;;;;21.67;70.90;99672.53;4959070;28;20026;-71
2021/08/27 03:28:25;;;;;;;4.78;4.28;;;;;;;21.67;71.47;99668.94;4958835;28;20078;-72
2021/08/27 03:30:52;;;;;;;5.82;4.15;;;;;;;21.70;71.52;99670.88;4958501;28;20085;-73
2021/08/27 03:33:20;;;;;;;4.93;4.47;;;;;;;21.68;73.26;99681.84;4958778;28;20041;-74
2021/08/27 03:35:51;;;;;;;4.35;3.83;;;;;;;21.59;72.68;99682.53;4958750;28;20462;-75
2021/08/27 03:38:18;;;;;;;8.43;3.80;;;;;;;21.51;73.01;99688.84;4958364;28;20031;-76
2021/08/27 03:40:45;;;;;;;7.35;4.00;;;;;;;21.48;72.95;99682.03;4958789;28;20386;-75
2021/08/27 03:43:13;;;;;;;4.72;4.30;;;;;;;21.45;73.28;99691.44;4958594;28;20035;-75
2021/08/27 03:45:40;;;;;;;5.88;4.15;;;;;;;21.50;73.47;99695.75;4958594;28;20082;-76
2021/08/27 03:48:06;;;;;;;5.97;4.32;;;;;;;21.66;73.22;99698.50;4958131;28;20045;-78
2021/08/27 03:50:31;;;;;;;5.93;3.97;;;;;;;21.60;72.78;99692.59;4958947;28;20034;-76
2021/08/27 03:53:00;;;;;;;6.30;3.65;;;;;;;21.58;73.28;99699.97;4958067;28;20488;-78
2021/08/27 03:55:28;;;;;;;4.28;3.92;;;;;;;21.77;73.03;99704.63;4975380;28;20026;-77
2021/08/27 03:57:57;;;;;;;5.53;4.20;;;;;;;21.82;73.08;99698.41;4942381;28;20482;-74
2021/08/27 04:00:25;;;;;;;5.72;4.20;;;;;;;21.70;72.73;99696.34;4957885;28;20121;-77
2021/08/27 04:02:52;;;;;;;4.82;3.88;;;;;;;21.73;72.63;99706.75;4958158;28;20081;-78
2021/08/27 04:05:19;;;;;;;4.43;3.33;;;;;;;21.67;72.85;99705.72;4957824;28;20122;-74
2021/08/27 04:07:46;;;;;;;4.03;3.70;;;;;;;21.70;72.93;99710.50;4957689;28;20035;-77
2021/08/27 04:10:14;;;;;;;4.40;3.70;;;;;;;21.67;72.76;99717.06;4957945;28;20031;-75
2021/08/27 04:12:40;;;;;;;4.18;3.88;;;;;;;21.65;72.58;99708.22;4957838;28;20034;-75
2021/08/27 04:15:12;;;;;;;4.22;3.83;;;;;;;21.61;72.55;99716.81;4958293;28;20035;-75
2021/08/27 04:17:38;;;;;;;5.63;3.13;;;;;;;21.57;72.74;99721.00;4957697;28;20121;-75
2021/08/27 04:20:06;;;;;;;3.45;2.85;;;;;;;21.50;73.22;99707.06;4957621;28;20496;-77
2021/08/27 04:22:32;;;;;;;5.13;3.90;;;;;;;21.52;73.58;99710.22;4957842;28;20397;-76
2021/08/27 04:24:57;;;;;;;4.53;3.13;;;;;;;21.61;73.15;99721.69;4957177;28;20066;-75
2021/08/27 04:27:23;;;;;;;4.15;3.40;;;;;;;21.62;73.01;99717.59;4957716;28;20035;-75
2021/08/27 04:29:50;;;;;;;4.22;3.22;;;;;;;21.62;72.69;99709.91;4957592;28;20030;-77
2021/08/27 04:32:15;;;;;;;4.30;3.03;;;;;;;21.77;72.73;99718.78;4957999;28;20077;-74
2021/08/27 04:34:41;;;;;;;5.20;2.80;;;;;;;21.81;72.46;99727.97;4957731;28;20458;-78
2021/08/27 04:37:06;;;;;;;3.67;2.92;;;;;;;21.93;70.95;99721.50;4957857;28;20034;-77
2021/08/27 04:39:32;;;;;;;3.40;3.08;;;;;;;21.86;71.50;99727.41;4957832;28;20065;-77
2021/08/27 04:41:58;;;;;;;3.15;2.85;;;;;;;21.85;71.47;99723.00;4957918;28;20377;-78
2021/08/27 04:44:24;;;;;;;3.40;2.53;;;;;;;21.80;71.55;99729.22;4957845;28;20442;-75
2021/08/27 04:46:49;;;;;;;3.00;2.60;;;;;;;21.76;71.53;99727.72;4957834;28;20039;-75
2021/08/27 04:49:15;;;;;;;3.70;2.80;;;;;;;21.96;71.11;99723.44;4957452;28;20030;-74
2021/08/27 04:51:41;;;;;;;3.47;2.85;;;;;;;22.13;70.75;99734.72;4957690;28;20093;-77
2021/08/27 04:54:06;;;;;;;3.05;2.65;;;;;;;22.24;70.07;99732.31;4957691;28;20046;-75
2021/08/27 04:56:32;;;;;;;3.78;3.35;;;;;;;23.14;66.98;99730.94;4957467;28;20343;-78
2021/08/27 04:58:57;;;;;;;4.00;3.30;;;;;;;23.55;65.40;99728.25;4958265;28;20038;-77
2021/08/27 05:01:23;;;;;;;3.25;2.58;;;;;;;24.21;63.35;99731.78;4957634;28;20196;-73
2021/08/27 05:03:48;;;;;;;3.63;2.97;;;;;;;24.72;61.52;99729.28;4957935;28;20472;-74
2021/08/27 05:06:14;;;;;;;3.08;2.80;;;;;;;25.37;59.47;99733.00;4957929;28;20121;-74
2021/08/27 05:08:39;;;;;;;2.78;2.58;;;;;;;25.91;57.22;99733.41;4957927;28;20366;-73
2021/08/27 05:11:05;;;;;;;2.83;2.63;;;;;;;26.36;56.58;99746.69;4957251;28;20371;-73
2021/08/27 05:13:31;;;;;;;2.70;2.50;;;;;;;26.86;54.13;99747.09;4957757;28;20090;-73
2021/08/27 05:15:56;;;;;;;3.45;2.28;;;;;;;27.35;52.91;99742.94;4957005;28;20061;-74
2021/08/27 05:18:22;;;;;;;4.35;3.00;;;;;;;27.49;51.83;99739.34;4956871;28;20094;-74
2021/08/27 05:20:48;;;;;;;3.17;2.88;;;;;;;27.35;52.63;99746.59;4956993;28;20027;-73
2021/08/27 05:23:13;;;;;;;2.78;2.40;;;;;;;27.85;51.19;99740.25;4957018;28;20057;-74
2021/08/27 05:25:39;;;;;;;3.97;2.70;;;;;;;28.48;49.97;99749.38;4957144;28;20113;-74
2021/08/27 05:28:05;;;;;;;5.20;3.33;;;;;;;28.59;49.27;99749.53;4957168;28;20134;-74
2021/08/27 05:30:30;;;;;;;7.68;3.33;;;;;;;28.50;49.56;99746.81;4957098;28;20117;-73
2021/08/27 05:32:57;;;;;;;3.50;3.00;;;;;;;27.93;50.85;99739.38;4957573;28;20101;-73
2021/08/27 05:35:24;;;;;;;5.68;2.97;;;;;;;28.05;51.14;99737.50;4957262;28;20474;-75
2021/08/27 05:37:50;;;;;;;2.95;2.60;;;;;;;28.59;49.74;99746.69;4959965;28;20063;-72
2021/08/27 05:40:16;;;;;;;4.85;3.00;;;;;;;28.55;49.70;99743.25;4961709;28;20414;-73
2021/08/27 05:42:42;;;;;;;5.40;3.30;;;;;;;28.30;50.31;99744.66;4944989;28;20059;-74
2021/08/27 05:45:08;;;;;;;7.03;3.95;;;;;;;28.27;50.29;99751.38;4960701;28;20034;-74
2021/08/27 05:47:34;;;;;;;7.13;4.45;;;;;;;28.51;50.28;99742.69;4961021;28;20058;-74
2021/08/27 05:50:00;;;;;;;7.47;4.65;;;;;;;27.71;51.86;99746.78;4960615;28;20461;-75
2021/08/27 05:52:29;;;;;;;6.82;4.75;;;;;;;28.04;51.67;99749.44;4961171;28;20034;-74
2021/08/27 05:54:55;;;;;;;5.00;4.50;;;;;;;28.45;50.01;99742.59;4960671;28;20134;-74
2021/08/27 05:57:20;;;;;;;7.47;4.85;;;;;;;28.05;51.17;99751.78;4960660;28;20121;-74
2021/08/27 05:59:46;;;;;;;6.47;5.30;;;;;;;28.21;51.41;99753.34;4960654;28;20109;-74
2021/08/27 06:02:11;;;;;;;6.85;5.85;;;;;;;27.40;52.96;99747.97;4960477;28;20058;-76
2021/08/27 06:04:37;;;;;;;8.07;6.18;;;;;;;26.76;54.56;99745.56;4960322;28;20113;-76
2021/08/27 06:07:03;;;;;;;8.68;5.95;;;;;;;26.79;54.39;99750.28;4960266;28;20118;-75
2021/08/27 06:09:28;;;;;;;6.93;5.82;;;;;;;27.06;54.44;99750.13;4960191;28;20065;-77
2021/08/27 06:11:54;;;;;;;9.85;6.65;;;;;;;27.87;51.78;99757.72;4960820;28;20038;-78
2021/08/27 06:14:20;;;;;;;7.20;5.38;;;;;;;28.22;51.47;99765.56;4960355;28;20027;-78
2021/08/27 06:16:45;;;;;;;9.13;6.38;;;;;;;27.90;51.89;99760.38;4960451;28;20038;-77
2021/08/27 06:19:11;;;;;;;11.18;8.00;;;;;;;27.03;54.41;99765.38;4959695;28;20053;-76
2021/08/27 06:21:39;;;;;;;9.65;7.07;;;;;;;26.80;55.46;99771.88;4960212;28;20030;-78
2021/08/27 06:24:04;;;;;;;8.73;7.20;;;;;;;26.56;56.17;99772.63;4960034;28;20038;-78
2021/08/27 06:26:31;;;;;;;9.25;7.20;;;;;;;26.19;57.13;99771.94;4959972;28;20027;-76
2021/08/27 06:28:58;;;;;;;9.57;7.28;;;;;;;25.76;58.93;99767.47;4959953;28;20474;-76
2021/08/27 06:31:24;;;;;;;7.63;6.78;;;;;;;25.55;58.81;99769.22;4960448;28;20053;-77
2021/08/27 06:33:50;;;;;;;10.38;6.93;;;;;;;25.46;59.37;99774.91;4960355;28;20126;-76
2021/08/27 06:36:16;;;;;;;9.10;5.97;;;;;;;25.44;59.67;99783.13;4960282;28;20496;-75
2021/08/27 06:38:42;;;;;;;6.63;5.35;;;;;;;25.43;59.70;99770.97;4960018;28;20382;-75
2021/08/27 06:41:08;;;;;;;5.97;4.95;;;;;;;25.92;58.05;99775.66;4959629;28;20416;-76
2021/08/27 06:43:40;;;;;;;8.18;5.30;;;;;;;26.05;57.63;99775.50;4976924;28;20109;-77
2021/08/27 06:46:11;;;;;;;6.53;4.30;;;;;;;26.38;56.60;99778.38;4960023;28;20042;-76
2021/08/27 06:48:37;;;;;;;6.78;3.90;;;;;;;26.78;55.22;99780.91;4976201;28;20071;-76
2021/08/27 06:51:03;;;;;;;4.20;3.78;;;;;;;27.04;54.46;99777.56;4959519;28;20561;-77
2021/08/27 06:53:29;;;;;;;4.93;3.70;;;;;;;27.83;52.05;99774.28;4959975;28;20026;-78
2021/08/27 06:55:54;;;;;;;3.67;3.38;;;;;;;27.89;51.87;99778.03;4959886;28;20037;-76
2021/08/27 06:58:22;;;;;;;4.72;3.22;;;;;;;28.94;48.97;99774.53;4959587;28;20041;-77
2021/08/27 07:00:50;;;;;;;3.72;2.80;;;;;;;28.98;48.46;99780.84;4960070;28;20022;-77
2021/08/27 07:03:16;;;;;;;4.30;2.70;;;;;;;28.97;48.40;99776.38;4959504;28;20035;-76
2021/08/27 07:05:42;;;;;;;4.30;2.80;;;;;;;29.63;47.75;99778.53;4958959;28;20054;-75
2021/08/27 07:08:08;;;;;;;2.92;2.50;;;;;;;29.74;46.72;99777.88;4959426;28;20065;-75
2021/08/27 07:10:33;;;;;;;3.22;2.92;;;;;;;29.49;47.61;99779.38;4977137;28;20062;-75
2021/08/27 07:13:00;;;;;;;3.92;3.60;;;;;;;29.50;48.24;99786.69;4959164;28;20426;-75
2021/08/27 07:15:26;;;;;;;11.25;5.53;;;;;;;29.15;48.98;99776.13;4977044;28;20033;-75
2021/08/27 07:17:53;;;;;;;7.65;4.80;;;;;;;29.77;46.53;99782.59;4958581;28;20058;-75
2021/08/27 07:20:19;;;;;;;6.10;4.13;;;;;;;29.74;45.82;99778.66;4959168;28;20550;-74
2021/08/27 07:22:46;;;;;;;2.90;2.70;;;;;;;29.36;46.71;99782.63;4958968;28;20121;-74
2021/08/27 07:25:12;;;;;;;3.15;2.50;;;;;;;29.71;45.35;99785.38;4959721;28;20059;-74
2021/08/27 07:27:39;;;;;;;4.95;3.00;;;;;;;29.36;45.49;99782.63;4959179;28;20042;-74
2021/08/27 07:30:07;;;;;;;9.68;5.03;;;;;;;28.79;47.80;99786.00;4976683;28;20042;-77
2021/08/27 07:32:33;;;;;;;5.30;4.47;;;;;;;29.42;46.69;99791.31;4958803;28;20070;-73
2021/08/27 07:34:59;;;;;;;6.65;3.30;;;;;;;29.69;46.09;99790.84;4958616;28;20059;-73
2021/08/27 07:37:24;;;;;;;5.78;4.28;;;;;;;29.94;45.68;99791.38;4959175;28;20034;-76
2021/08/27 07:39:50;;;;;;;5.38;3.75;;;;;;;30.39;44.67;99791.78;4959177;28;20457;-73
2021/08/27 07:42:16;;;;;;;3.13;2.83;;;;;;;29.75;45.62;99802.38;4958685;28;20504;-74
2021/08/27 07:44:41;;;;;;;4.10;2.65;;;;;;;29.73;45.73;99797.16;4958654;28;20085;-75
2021/08/27 07:47:07;;;;;;;4.10;2.47;;;;;;;29.62;46.24;99797.03;4958507;28;20035;-74
2021/08/27 07:49:33;;;;;;;7.18;3.63;;;;;;;29.88;45.38;99804.84;4958993;28;20038;-76
2021/08/27 07:51:58;;;;;;;8.32;3.50;;;;;;;30.04;44.99;99801.34;4958415;28;20030;-77
2021/08/27 07:54:25;;;;;;;5.20;2.88;;;;;;;30.05;45.04;99794.34;4958895;28;20035;-77
2021/08/27 07:56:51;;;;;;;4.57;2.28;;;;;;;29.42;46.16;99802.75;4958507;28;20125;-75
2021/08/27 07:59:16;;;;;;;3.47;2.60;;;;;;;28.58;47.23;99807.28;4958625;28;20034;-74
2021/08/27 08:01:42;;;;;;;6.25;3.47;;;;;;;29.12;45.83;99805.75;4958853;28;20038;-75
2021/08/27 08:04:08;;;;;;;3.95;2.80;;;;;;;28.37;47.63;99807.22;4975258;28;20486;-74
2021/08/27 08:06:38;;;;;;;4.32;2.92;;;;;;;27.86;49.85;99807.59;4958360;28;20031;-74
2021/08/27 08:09:04;;;;;;;4.85;2.65;;;;;;;27.30;50.68;99807.25;4958058;28;20118;-74
2021/08/27 08:11:30;;;;;;;3.80;2.40;;;;;;;27.32;50.90;99809.59;4942619;28;20031;-75
2021/08/27 08:13:55;;;;;;;3.47;2.50;;;;;;;27.32;50.67;99815.31;4958324;28;20488;-75
2021/08/27 08:16:21;;;;;;;3.50;2.25;;;;;;;28.30;47.76;99806.81;4958452;28;20027;-76
2021/08/27 08:18:47;;;;;;;3.90;2.95;;;;;;;28.06;48.13;99810.53;4957979;28;20086;-74
2021/08/27 08:21:12;;;;;;;4.25;2.25;;;;;;;28.39;47.18;99806.72;4958365;28;20122;-77
2021/08/27 08:23:39;;;;;;;4.22;2.63;;;;;;;28.87;46.48;99815.00;4958771;28;20398;-78
2021/08/27 08:26:05;;;;;;;4.93;2.47;;;;;;;29.01;44.55;99817.06;4958366;28;20439;-78
2021/08/27 08:28:30;;;;;;;2.58;2.20;;;;;;;28.85;44.44;99815.50;4958244;28;20125;-78
2021/08/27 08:30:58;;;;;;;2.38;1.80;;;;;;;29.08;44.86;99808.03;4958169;28;20133;-79
2021/08/27 08:33:24;;;;;;;2.10;1.90;;;;;;;28.93;45.58;99813.84;4957936;28;20101;-76
2021/08/27 08:35:50;;;;;;;3.25;2.05;;;;;;;29.68;44.63;99809.34;4957679;28;20022;-76
2021/08/27 08:38:17;;;;;;;2.28;2.08;;;;;;;29.69;45.09;99819.53;4958236;28;20041;-75
2021/08/27 08:40:45;;;;;;;3.38;1.85;;;;;;;29.82;45.01;99812.59;4957463;28;20082;-73
2021/08/27 08:43:13;;;;;;;2.42;1.80;;;;;;;31.13;41.78;99811.09;4957889;28;20039;-72
2021/08/27 08:45:49;;;;;;;3.10;1.70;;;;;;;32.22;39.41;99821.94;4957331;28;20034;-72
2021/08/27 08:48:20;;;;;;;3.25;1.80;;;;;;;33.14;37.36;99825.03;4957314;28;20089;-72
2021/08/27 08:50:46;;;;;;;4.85;2.30;;;;;;;33.46;36.00;99816.84;4957380;28;20147;-73
2021/08/27 08:53:12;;;;;;;2.50;1.35;;;;;;;33.67;36.15;99813.59;4957093;28;20059;-74
2021/08/27 08:55:40;;;;;;;2.15;1.70;;;;;;;33.50;36.65;99814.44;4957251;28;20034;-73
2021/08/27 08:58:07;;;;;;;4.20;1.90;;;;;;;32.74;39.14;99818.53;4957054;28;20035;-73
2021/08/27 09:00:34;;;;;;;1.92;1.60;;;;;;;33.69;35.86;99805.97;4957162;28;20362;-73
2021/08/27 09:03:00;;;;;;;2.30;1.58;;;;;;;34.20;36.05;99818.00;4956873;28;20493;-73
2021/08/27 09:05:26;;;;;;;3.42;1.67;;;;;;;34.50;35.08;99817.25;4957012;28;20038;-73
2021/08/27 09:07:53;;;;;;;2.95;1.80;;;;;;;34.95;35.26;99808.97;4956913;28;20042;-73
2021/08/27 09:10:20;;;;;;;2.10;1.30;;;;;;;35.16;33.74;99812.13;4974334;28;20470;-73
2021/08/27 09:12:47;;;;;;;1.75;1.58;;;;;;;34.83;33.91;99816.91;4959618;28;20026;-72
2021/08/27 09:15:15;;;;;;;3.53;1.67;;;;;;;35.44;32.52;99811.81;4961400;28;20053;-71
2021/08/27 09:17:42;;;;;;;3.72;1.70;;;;;;;35.02;33.31;99807.56;4960859;28;20174;-72
2021/08/27 09:20:09;;;;;;;5.15;1.85;;;;;;;34.78;34.25;99811.97;4961522;28;20026;-73
2021/08/27 09:22:55;;;;;;;3.05;1.60;;;;;;;35.06;34.40;99813.84;4961514;28;20053;-74
2021/08/27 09:25:26;;;;;;;4.25;2.15;;;;;;;35.32;31.15;99813.28;4961203;28;20034;-73
2021/08/27 09:28:10;;;;;;;2.28;1.48;;;;;;;33.84;33.64;99809.28;4960652;28;20121;-73
2021/08/27 09:30:46;;;;;;;2.03;1.50;;;;;;;34.67;32.22;99812.09;4960575;28;20022;-74
2021/08/27 09:33:22;;;;;;;3.85;1.35;;;;;;;35.52;31.61;99803.28;4960791;28;20133;-73
2021/08/27 09:36:03;;;;;;;3.20;1.83;;;;;;;35.69;31.58;99815.44;4961255;28;20027;-74
2021/08/27 09:38:31;;;;;;;2.22;1.63;;;;;;;35.59;31.43;99811.38;4961347;28;20031;-73
2021/08/27 09:41:08;;;;;;;1.98;1.42;;;;;;;34.17;33.91;99812.50;4961166;28;20374;-73
2021/08/27 09:43:51;;;;;;;6.43;1.88;;;;;;;34.47;33.70;99816.22;4978055;28;20031;-72
2021/08/27 09:46:37;;;;;;;1.70;1.60;;;;;;;34.23;33.46;99799.59;4978231;28;20031;-72
2021/08/27 09:49:24;;;;;;;3.50;1.58;;;;;;;33.60;34.72;99803.38;4961151;28;20438;-72
2021/08/27 09:51:50;;;;;;;3.00;1.60;;;;;;;33.95;34.42;99804.78;4959583;28;20039;-72
2021/08/27 09:54:27;;;;;;;6.60;1.98;;;;;;;33.60;34.46;99809.16;4960188;28;20101;-73
2021/08/27 09:56:58;;;;;;;5.53;2.55;;;;;;;34.73;32.85;99804.16;4960411;28;20106;-72
2021/08/27 09:59:50;;;;;;;2.53;1.58;;;;;;;33.93;33.79;99807.38;4959804;28;20129;-71
2021/08/27 10:02:28;;;;;;;1.92;1.73;;;;;;;33.78;33.69;99801.97;4977291;28;20022;-74
2021/08/27 10:04:58;;;;;;;3.15;1.73;;;;;;;33.69;33.71;99794.41;4959993;28;20035;-73
2021/08/27 10:07:37;;;;;;;2.05;1.42;;;;;;;34.07;33.28;99807.06;4960188;28;20198;-73
2021/08/27 10:10:09;;;;;;;2.90;1.65;;;;;;;34.29;33.23;99814.75;4960119;28;20035;-72
2021/08/27 10:12:36;;;;;;;2.67;2.13;;;;;;;33.97;33.16;99799.25;4956704;28;20079;-73
2021/08/27 10:15:04;;;;;;;3.45;1.48;;;;;;;34.77;32.21;99804.63;4959903;28;20031;-73
2021/08/27 10:17:30;;;;;;;3.05;1.75;;;;;;;34.27;32.15;99802.97;4977602;28;20023;-73
2021/08/27 10:19:56;;;;;;;2.00;1.80;;;;;;;33.78;32.22;99799.88;4959499;28;20047;-72
2021/08/27 10:22:23;;;;;;;3.15;1.42;;;;;;;34.25;31.51;99799.84;4960910;28;20193;-72
2021/08/27 10:24:49;;;;;;;3.70;2.05;;;;;;;34.52;30.89;99803.06;4960173;28;20031;-73
2021/08/27 10:27:16;;;;;;;2.40;1.50;;;;;;;34.90;30.26;99789.53;4960229;28;20062;-73
2021/08/27 10:29:53;;;;;;;2.53;1.60;;;;;;;34.84;31.02;99795.38;4977034;28;20371;-71
2021/08/27 10:32:41;;;;;;;2.17;1.80;;;;;;;35.33;30.40;99798.25;4960154;28;20031;-73
2021/08/27 10:35:07;;;;;;;3.05;1.55;;;;;;;34.43;31.64;99795.47;4959820;28;20034;-72
2021/08/27 10:37:48;;;;;;;2.33;1.40;;;;;;;33.86;32.23;99795.09;4959853;28;20430;-73
2021/08/27 10:40:23;;;;;;;1.90;1.63;;;;;;;33.94;30.84;99775.16;4977309;28;20401;-73
2021/08/27 10:42:52;;;;;;;3.13;1.55;;;;;;;34.38;30.23;99796.31;4960017;28;20097;-71
2021/08/27 10:45:40;;;;;;;1.50;1.40;;;;;;;34.81;29.23;99792.78;4960170;28;20034;-71
2021/08/27 10:48:08;;;;;;;2.45;1.40;;;;;;;33.91;30.84;99786.94;4959372;28;20466;-73
2021/08/27 10:50:33;;;;;;;1.45;1.33;;;;;;;34.05;31.12;99803.16;4960066;28;20498;-72
2021/08/27 10:53:29;;;;;;;2.95;1.60;;;;;;;34.46;31.05;99796.53;4959354;28;20062;-72
2021/08/27 10:55:55;;;;;;;1.88;1.70;;;;;;;33.30;32.76;99797.47;4959242;28;20589;-73
2021/08/27 10:58:35;;;;;;;3.20;1.40;;;;;;;33.29;32.99;99793.81;4959688;28;20125;-73
2021/08/27 11:01:03;;;;;;;3.33;1.70;;;;;;;33.39;33.13;99800.03;4959332;28;20023;-73
2021/08/27 11:04:00;;;;;;;1.73;1.45;;;;;;;32.94;34.23;99796.53;4959341;28;20186;-73
2021/08/27 11:06:26;;;;;;;1.23;1.23;;;;;;;33.73;32.94;99794.94;4976599;28;20023;-71
2021/08/27 11:08:51;;;;;;;2.28;1.70;;;;;;;33.75;32.99;99805.94;4959459;28;20045;-73
2021/08/27 11:11:17;;;;;;;2.00;1.70;;;;;;;32.81;34.53;99811.47;4959157;28;20034;-72
2021/08/27 11:13:43;;;;;;;3.10;1.60;;;;;;;33.14;34.28;99789.69;4959210;28;20027;-72
2021/08/27 11:16:21;;;;;;;7.45;1.25;;;;;;;32.99;34.05;99802.28;4959292;28;20041;-72
2021/08/27 11:18:48;;;;;;;1.45;1.35;;;;;;;32.64;35.09;99805.72;4959067;28;20194;-73
2021/08/27 11:21:36;;;;;;;1.70;1.35;;;;;;;32.82;35.44;99810.94;4958721;28;20042;-73
2021/08/27 11:24:31;;;;;;;1.92;1.40;;;;;;;32.58;35.52;99813.59;4959014;28;20039;-74
2021/08/27 11:27:16;;;;;;;1.55;1.45;;;;;;;32.64;35.54;99805.72;4942583;28;20070;-78
2021/08/27 11:29:43;;;;;;;2.58;1.42;;;;;;;32.07;36.98;99818.53;4977050;28;20046;-79
2021/08/27 11:32:18;;;;;;;1.73;1.52;;;;;;;32.15;36.83;99802.31;4959539;28;20019;-78
2021/08/27 11:34:54;;;;;;;1.33;1.23;;;;;;;31.47;38.46;99812.06;4958405;28;20030;-78
2021/08/27 11:37:22;;;;;;;1.63;1.52;;;;;;;32.14;37.80;99806.50;4959463;28;20030;-76
2021/08/27 11:39:48;;;;;;;1.92;1.52;;;;;;;31.96;38.07;99801.22;4958974;28;20117;-73
2021/08/27 11:42:16;;;;;;;1.92;1.50;;;;;;;32.21;36.89;99811.72;4959236;28;20082;-77